Time;durP1;ratioP1;P1;durP2;ratioP2;P2;SDS_P1;SDS_P2;PMS_P1;PMS_P2;Temp;Humidity;BMP_temperature;BMP_pressure;BME280_temperature;BME280_humidity;BME280_pressure;Samples;Min_cycle;Max_cycle;Signal;HPM_P1;HPM_P2
2021/06/12 00:00:29;;;;;;;2.28;0.65;;;18.50;99.90;;;17.93;75.04;100791.84;5103844;28;20138;-56
2021/06/12 00:02:57;;;;;;;2.25;0.60;;;18.50;99.90;;;17.82;75.20;100793.13;5071155;28;20424;-54
2021/06/12 00:05:24;;;;;;;1.00;0.40;;;18.40;99.90;;;17.78;75.28;100802.41;5103911;28;20032;-55
2021/06/12 00:07:50;;;;;;;1.25;0.45;;;18.30;99.90;;;17.75;74.99;100789.59;5087980;28;20066;-55
2021/06/12 00:10:25;;;;;;;1.73;0.80;;;18.30;99.90;;;17.77;75.72;100797.31;5088411;28;20041;-54
2021/06/12 00:12:51;;;;;;;2.20;0.50;;;18.20;99.90;;;17.74;75.05;100792.41;5088512;28;20056;-54
2021/06/12 00:15:20;;;;;;;1.40;0.50;;;18.20;99.90;;;17.72;75.33;100789.94;5086867;28;20808;-55
2021/06/12 00:17:47;;;;;;;1.50;0.60;;;18.20;99.90;;;17.69;75.24;100792.13;5070196;28;20050;-57
2021/06/12 00:20:21;;;;;;;1.08;0.50;;;18.20;99.90;;;17.69;75.78;100800.03;5088122;28;20081;-56
2021/06/12 00:22:47;;;;;;;2.00;0.93;;;18.20;99.90;;;17.73;75.25;100801.31;5088302;28;20071;-55
2021/06/12 00:25:16;;;;;;;3.63;0.65;;;18.20;99.90;;;17.75;74.95;100802.75;5088266;28;20557;-51
2021/06/12 00:27:43;;;;;;;2.78;0.82;;;18.20;99.90;;;17.73;74.86;100781.03;5087915;28;20024;-54
2021/06/12 00:30:11;;;;;;;1.67;0.50;;;18.20;99.90;;;17.72;74.70;100789.13;5088186;28;20322;-54
2021/06/12 00:32:38;;;;;;;2.03;0.50;;;18.20;99.90;;;17.67;74.95;100783.59;5088113;28;20040;-54
2021/06/12 00:35:10;;;;;;;2.38;0.40;;;18.20;99.90;;;17.63;75.77;100780.47;5087910;28;20855;-56
2021/06/12 00:37:38;;;;;;;1.08;0.60;;;18.10;99.90;;;17.58;75.56;100773.09;5087723;28;20028;-54
2021/06/12 00:40:07;;;;;;;3.67;0.60;;;18.10;99.90;;;17.61;75.42;100777.19;5087900;28;20049;-56
2021/06/12 00:42:34;;;;;;;4.00;0.52;;;18.10;99.90;;;17.59;75.49;100781.84;5069403;28;20110;-54
2021/06/12 00:45:00;;;;;;;1.65;0.75;;;18.10;99.90;;;17.54;75.78;100790.28;5069903;28;20036;-56
2021/06/12 00:47:26;;;;;;;2.45;0.65;;;18.10;99.90;;;17.37;77.04;100785.38;5087819;28;20046;-53
2021/06/12 00:49:52;;;;;;;2.30;0.50;;;18.00;99.90;;;17.28;77.75;100786.47;5087907;28;20729;-51
2021/06/12 00:52:18;;;;;;;1.15;0.60;;;17.90;99.90;;;17.25;77.49;100777.09;5087704;28;20479;-53
2021/06/12 00:54:44;;;;;;;2.83;0.80;;;17.80;99.90;;;17.24;77.77;100786.00;5087987;28;20383;-51
2021/06/12 00:57:10;;;;;;;1.38;0.60;;;17.70;99.90;;;17.23;77.82;100777.28;5087779;28;20155;-54
2021/06/12 00:59:36;;;;;;;2.22;0.50;;;17.80;99.90;;;17.27;77.48;100779.56;5071529;28;20040;-54
2021/06/12 01:02:02;;;;;;;1.75;0.50;;;17.70;99.90;;;17.30;77.76;100774.75;5073252;28;20172;-57
2021/06/12 01:04:28;;;;;;;1.52;0.50;;;17.70;99.90;;;17.32;77.59;100783.28;5073379;28;20109;-53
2021/06/12 01:06:54;;;;;;;2.67;0.50;;;17.80;99.90;;;17.32;77.92;100779.84;5091357;28;20563;-51
2021/06/12 01:09:22;;;;;;;4.00;0.70;;;17.80;99.90;;;17.33;77.54;100779.66;5092064;28;20040;-57
2021/06/12 01:12:33;;;;;;;0.88;0.50;;;17.80;99.90;;;17.34;78.11;100773.41;5091124;28;20147;-50
2021/06/12 01:15:05;;;;;;;2.13;0.50;;;17.80;99.90;;;17.34;77.04;100762.88;5074429;28;20050;-54
2021/06/12 01:17:51;;;;;;;2.05;0.57;;;17.80;99.90;;;17.39;76.88;100760.50;5106994;28;20044;-54
2021/06/12 01:20:26;;;;;;;1.90;0.60;;;17.80;99.90;;;17.43;76.42;100759.16;5074279;28;20028;-52
2021/06/12 01:23:11;;;;;;;2.37;0.70;;;17.90;99.90;;;17.48;75.62;100758.59;5091184;28;20044;-54
2021/06/12 01:26:06;;;;;;;1.50;0.40;;;17.90;99.90;;;17.49;75.68;100766.28;5091099;28;20085;-55
2021/06/12 01:29:16;;;;;;;1.98;0.70;;;17.90;99.90;;;17.45;76.23;100765.06;5091362;28;20036;-59
2021/06/12 01:31:46;;;;;;;2.13;0.60;;;18.00;99.90;;;17.50;75.59;100764.47;5091623;28;20397;-53
2021/06/12 01:34:12;;;;;;;2.55;0.50;;;18.00;99.90;;;17.60;74.03;100757.13;5073345;28;20145;-55
2021/06/12 01:36:40;;;;;;;2.70;0.60;;;18.00;99.90;;;17.67;74.02;100749.34;5091222;28;20479;-55
2021/06/12 01:39:06;;;;;;;3.25;0.50;;;18.10;99.90;;;17.68;74.23;100750.97;5073060;28;20562;-55
2021/06/12 01:41:35;;;;;;;1.98;0.63;;;18.20;99.90;;;17.66;74.46;100751.16;5090875;28;20482;-49
2021/06/12 01:44:02;;;;;;;1.00;0.57;;;18.10;99.90;;;17.64;75.31;100744.41;5072823;28;20112;-52
2021/06/12 01:46:29;;;;;;;2.85;0.60;;;18.10;99.90;;;17.62;75.25;100746.41;5090917;28;20036;-55
2021/06/12 01:48:58;;;;;;;4.50;0.40;;;18.10;99.90;;;17.63;75.45;100742.75;5090629;28;20407;-56
2021/06/12 01:51:28;;;;;;;1.77;0.65;;;18.10;99.90;;;17.63;75.76;100742.75;5106205;28;20046;-56
2021/06/12 01:53:56;;;;;;;3.63;0.50;;;18.10;99.90;;;17.61;75.73;100753.50;5090601;28;20062;-57
2021/06/12 01:56:26;;;;;;;1.17;0.50;;;18.10;99.90;;;17.65;75.49;100746.88;5090478;28;20043;-55
2021/06/12 01:58:53;;;;;;;3.70;0.60;;;18.10;99.90;;;17.68;75.06;100740.44;5106018;28;20130;-53
2021/06/12 02:01:23;;;;;;;1.08;0.52;;;18.10;99.90;;;17.69;75.00;100742.06;5089141;28;20423;-58
2021/06/12 02:03:50;;;;;;;2.33;0.60;;;18.20;99.90;;;17.68;74.39;100741.25;5090306;28;20051;-52
2021/06/12 02:06:18;;;;;;;1.33;0.60;;;18.20;99.90;;;17.69;74.16;100747.34;5072365;28;20051;-53
2021/06/12 02:08:47;;;;;;;2.60;0.60;;;18.20;99.90;;;17.73;73.37;100745.97;5071912;28;20039;-53
2021/06/12 02:11:18;;;;;;;1.38;0.70;;;18.20;99.90;;;17.70;73.60;100755.06;5055140;28;20076;-55
2021/06/12 02:13:46;;;;;;;2.22;0.77;;;18.20;99.90;;;17.68;74.20;100756.25;5090176;28;20028;-57
2021/06/12 02:16:13;;;;;;;5.15;0.50;;;18.20;99.90;;;17.57;75.60;100754.84;5072329;28;20085;-56
2021/06/12 02:18:44;;;;;;;1.85;0.40;;;18.10;99.90;;;17.51;75.85;100751.13;5088810;28;20568;-56
2021/06/12 02:21:11;;;;;;;2.35;0.60;;;18.00;99.90;;;17.51;75.80;100748.50;5090053;28;20059;-56
2021/06/12 02:23:38;;;;;;;1.67;0.45;;;18.00;99.90;;;17.48;76.52;100753.34;5072283;28;20032;-56
2021/06/12 02:26:07;;;;;;;2.05;0.63;;;18.00;99.90;;;17.46;76.16;100753.53;5072069;28;20043;-58
2021/06/12 02:28:35;;;;;;;1.35;0.50;;;18.00;99.90;;;17.47;76.16;100754.34;5072065;28;20058;-54
2021/06/12 02:31:43;;;;;;;3.70;0.55;;;18.00;99.90;;;17.49;75.93;100758.41;5088652;28;20113;-53
2021/06/12 02:34:08;;;;;;;1.20;0.50;;;18.00;99.90;;;17.48;75.51;100759.41;5026838;28;20517;-53
2021/06/12 02:36:36;;;;;;;3.28;0.65;;;18.00;99.90;;;17.49;75.50;100765.47;5026913;28;20079;-51
2021/06/12 02:39:07;;;;;;;1.35;0.43;;;17.90;99.90;;;17.46;76.04;100766.69;5026859;28;20044;-52
2021/06/12 02:41:34;;;;;;;1.58;0.50;;;17.90;99.90;;;17.43;76.12;100761.78;5064502;22;20024;-53
2021/06/12 02:44:00;;;;;;;2.10;0.55;;;18.00;99.90;;;17.40;76.22;100764.78;5067079;28;20171;-55
2021/06/12 02:46:35;;;;;;;1.15;0.50;;;17.90;99.90;;;17.36;76.39;100755.59;5069536;28;20115;-55
2021/06/12 02:49:06;;;;;;;1.88;0.50;;;17.90;99.90;;;17.37;76.47;100751.16;5069668;28;20055;-53
2021/06/12 02:51:40;;;;;;;2.30;0.60;;;17.90;99.90;;;17.36;76.62;100763.50;5069711;28;20039;-54
2021/06/12 02:54:07;;;;;;;1.77;0.50;;;17.90;99.90;;;17.34;76.47;100769.94;5051529;28;20453;-54
2021/06/12 02:56:33;;;;;;;0.82;0.50;;;17.90;99.90;;;17.30;76.58;100771.31;5069692;28;20029;-54
2021/06/12 02:59:09;;;;;;;2.20;0.40;;;17.80;99.90;;;17.27;76.46;100758.50;5069285;28;20554;-54
2021/06/12 03:01:40;;;;;;;4.47;0.55;;;17.80;99.90;;;17.26;76.15;100757.69;5069415;28;20048;-60
2021/06/12 03:04:09;;;;;;;1.70;0.30;;;17.80;99.90;;;17.32;75.38;100761.41;5069265;28;20044;-57
2021/06/12 03:06:38;;;;;;;3.53;0.43;;;17.80;99.90;;;17.34;74.62;100768.13;5069014;28;20032;-54
2021/06/12 03:09:05;;;;;;;1.45;0.40;;;17.80;99.90;;;17.47;73.50;100759.59;5069235;28;20107;-56
2021/06/12 03:11:33;;;;;;;1.90;0.40;;;17.90;99.90;;;17.70;71.21;100762.16;5069078;28;20419;-57
2021/06/12 03:14:01;;;;;;;4.60;0.52;;;18.10;99.90;;;17.75;71.18;100762.41;5051533;28;20032;-58
2021/06/12 03:16:28;;;;;;;3.25;0.60;;;18.20;99.90;;;17.78;70.96;100759.41;5068794;28;20104;-54
2021/06/12 03:18:55;;;;;;;2.63;0.60;;;18.20;99.90;;;17.74;71.77;100760.78;5068985;28;20032;-56
2021/06/12 03:21:27;;;;;;;3.05;0.57;;;18.20;99.90;;;17.75;72.39;100771.13;5050356;28;20033;-54
2021/06/12 03:23:54;;;;;;;0.80;0.50;;;18.20;99.90;;;17.61;73.64;100768.47;5068760;28;20086;-56
2021/06/12 03:26:21;;;;;;;0.75;0.50;;;18.20;99.90;;;17.54;73.56;100773.66;5068866;28;20134;-54
2021/06/12 03:28:48;;;;;;;1.63;0.57;;;18.10;99.90;;;17.54;73.28;100769.19;5050799;28;20029;-55
2021/06/12 03:31:15;;;;;;;2.15;0.60;;;18.00;99.90;;;17.59;73.18;100773.94;5050603;28;20529;-52
2021/06/12 03:33:41;;;;;;;2.47;0.60;;;18.10;99.90;;;17.70;72.41;100775.31;5050714;28;20074;-56
2021/06/12 03:36:09;;;;;;;1.00;0.70;;;18.10;99.90;;;17.81;71.47;100778.31;5068785;28;20067;-57
2021/06/12 03:38:35;;;;;;;1.83;0.63;;;18.20;99.90;;;17.91;71.49;100772.75;5051023;28;20037;-55
2021/06/12 03:41:04;;;;;;;3.03;0.60;;;18.30;99.90;;;17.84;72.53;100770.03;5068599;28;20444;-56
2021/06/12 03:43:32;;;;;;;1.92;0.50;;;18.30;99.90;;;17.83;72.76;100770.22;5068312;28;20483;-55
2021/06/12 03:45:59;;;;;;;1.23;0.50;;;18.40;99.90;;;17.74;72.84;100761.59;5068863;28;20036;-54
2021/06/12 03:48:25;;;;;;;1.75;0.60;;;18.30;99.90;;;17.76;72.77;100764.88;5050189;28;20074;-55
2021/06/12 03:50:55;;;;;;;1.65;0.55;;;18.30;99.90;;;17.86;72.24;100765.41;5068672;28;20027;-54
2021/06/12 03:53:30;;;;;;;3.17;0.63;;;18.30;99.90;;;17.91;72.23;100767.47;5050557;28;20040;-53
2021/06/12 03:55:57;;;;;;;2.55;0.60;;;18.40;99.90;;;17.84;72.66;100762.13;5050348;28;20130;-54
2021/06/12 03:58:23;;;;;;;1.10;0.50;;;18.40;99.90;;;17.80;72.87;100770.59;5068271;28;20475;-54
2021/06/12 04:00:49;;;;;;;2.03;0.60;;;18.40;99.90;;;17.83;72.61;100770.22;5050098;28;20107;-58
2021/06/12 04:03:15;;;;;;;1.42;0.60;;;18.30;99.90;;;17.92;72.48;100776.22;5068512;28;20037;-54
2021/06/12 04:05:41;;;;;;;2.67;0.60;;;18.40;99.90;;;18.30;70.88;100779.47;5068427;28;20039;-55
2021/06/12 04:08:07;;;;;;;1.60;0.80;;;18.70;99.90;;;18.74;69.59;100779.31;5068016;28;20041;-53
2021/06/12 04:10:33;;;;;;;1.55;0.70;;;19.30;99.90;;;19.10;68.37;100779.16;5068290;28;20102;-55
2021/06/12 04:12:59;;;;;;;1.50;0.50;;;19.90;99.90;;;18.83;68.94;100776.34;5049968;28;20083;-55
2021/06/12 04:15:27;;;;;;;2.67;0.55;;;19.70;99.90;;;18.75;69.15;100767.75;5049703;28;20064;-54
2021/06/12 04:17:58;;;;;;;1.77;0.55;;;19.50;99.90;;;18.68;69.26;100772.97;5050148;28;20483;-57
2021/06/12 04:20:24;;;;;;;2.50;0.60;;;19.40;99.90;;;18.66;69.01;100774.97;5049942;28;20581;-53
2021/06/12 04:22:50;;;;;;;1.98;0.60;;;19.30;99.90;;;18.59;69.67;100781.97;5068139;28;20031;-50
2021/06/12 04:25:16;;;;;;;2.00;0.38;;;19.20;99.90;;;18.54;70.36;100781.72;5068162;28;20037;-56
2021/06/12 04:27:42;;;;;;;4.55;0.85;;;19.10;99.90;;;18.41;71.31;100790.34;5067993;28;20288;-52
2021/06/12 04:30:10;;;;;;;1.67;0.68;;;19.00;99.90;;;18.34;71.33;100783.38;5067681;28;20036;-55
2021/06/12 04:32:36;;;;;;;1.95;0.95;;;18.90;99.90;;;18.37;71.30;100783.00;5049735;28;20064;-51
2021/06/12 04:35:01;;;;;;;1.58;0.45;;;19.00;99.90;;;18.33;71.91;100782.56;5070815;28;20072;-52
2021/06/12 04:37:27;;;;;;;1.38;0.50;;;19.00;99.90;;;18.37;71.96;100788.28;5071882;28;20110;-55
2021/06/12 04:39:53;;;;;;;0.98;0.47;;;19.00;99.90;;;19.05;69.82;100798.22;5071829;28;20044;-54
2021/06/12 04:42:19;;;;;;;1.00;0.50;;;19.70;99.90;;;18.71;71.04;100796.34;5053583;28;20055;-49
2021/06/12 04:44:45;;;;;;;2.55;0.60;;;19.60;99.90;;;18.61;71.35;100795.81;5071652;28;20123;-55
2021/06/12 04:47:11;;;;;;;3.75;0.50;;;19.40;99.90;;;18.63;71.16;100796.47;5071974;28;20032;-51
2021/06/12 04:49:37;;;;;;;4.00;0.50;;;19.30;99.90;;;18.64;71.20;100797.28;5071953;28;20382;-54
2021/06/12 04:52:04;;;;;;;1.42;0.60;;;19.30;99.90;;;18.67;71.14;100810.09;5071810;28;20036;-50
2021/06/12 04:54:29;;;;;;;2.22;0.70;;;19.30;99.90;;;18.82;70.66;100811.66;5071667;28;20720;-51
2021/06/12 04:56:55;;;;;;;4.15;0.80;;;19.40;99.90;;;18.96;70.21;100807.28;5071642;28;20042;-56
2021/06/12 04:59:21;;;;;;;3.70;1.15;;;19.60;99.90;;;19.11;69.47;100797.47;5071517;28;20136;-54
2021/06/12 05:01:47;;;;;;;2.58;0.55;;;19.70;99.90;;;18.97;69.59;100806.28;5071999;28;20039;-55
2021/06/12 05:04:13;;;;;;;2.08;0.50;;;19.70;99.90;;;19.21;68.81;100802.41;5071441;28;20337;-53
2021/06/12 05:06:39;;;;;;;2.15;0.80;;;19.90;99.90;;;19.65;67.73;100804.75;5071621;28;20025;-57
2021/06/12 05:09:05;;;;;;;3.35;0.60;;;20.40;99.90;;;20.23;65.92;100793.78;5071265;28;20044;-51
2021/06/12 05:11:31;;;;;;;4.50;0.68;;;21.10;99.90;;;20.86;63.88;100801.22;5053292;28;20037;-56
2021/06/12 05:13:57;;;;;;;4.38;0.38;;;22.20;99.90;;;20.26;65.70;100804.78;5053274;28;20035;-55
2021/06/12 05:16:23;;;;;;;2.35;0.50;;;21.60;99.90;;;19.82;67.27;100808.69;5071359;28;20040;-54
2021/06/12 05:18:49;;;;;;;1.88;0.55;;;21.00;99.90;;;19.95;66.98;100810.56;5071551;28;20041;-54
2021/06/12 05:21:16;;;;;;;1.13;0.57;;;20.90;99.90;;;20.30;65.75;100813.13;5069767;28;20046;-51
2021/06/12 05:23:43;;;;;;;0.90;0.50;;;21.20;99.90;;;20.97;63.77;100813.03;5071373;28;20379;-57
2021/06/12 05:26:11;;;;;;;1.85;0.47;;;22.00;99.90;;;21.06;63.20;100811.00;5052840;28;20048;-54
2021/06/12 05:28:37;;;;;;;1.30;0.50;;;22.50;99.90;;;21.07;63.44;100810.78;5086488;28;20490;-50
2021/06/12 05:31:03;;;;;;;2.28;0.60;;;22.80;99.20;;;21.50;62.22;100815.66;5070993;28;20082;-55
2021/06/12 05:33:33;;;;;;;1.40;0.32;;;23.00;98.50;;;22.14;60.14;100810.34;5052845;28;20036;-51
2021/06/12 05:35:59;;;;;;;1.90;0.50;;;23.70;97.10;;;22.18;60.21;100806.25;5052822;28;20040;-54
2021/06/12 05:38:26;;;;;;;1.10;0.45;;;24.10;95.60;;;21.66;61.40;100817.88;5070849;28;20472;-49
2021/06/12 05:40:54;;;;;;;1.80;0.40;;;23.50;95.90;;;21.48;61.70;100821.16;5070697;28;20025;-56
2021/06/12 05:43:20;;;;;;;6.32;1.40;;;23.30;96.70;;;22.27;59.91;100822.72;5070459;28;20051;-51
2021/06/12 05:45:46;;;;;;;3.05;0.60;;;24.00;95.30;;;22.67;59.10;100817.19;5070161;28;20028;-53
2021/06/12 05:48:13;;;;;;;2.00;0.40;;;24.60;93.70;;;22.56;58.44;100825.81;5070596;28;20484;-52
2021/06/12 05:50:39;;;;;;;0.63;0.32;;;24.70;92.30;;;22.01;60.03;100821.03;5071206;28;20035;-59
2021/06/12 05:53:05;;;;;;;0.80;0.40;;;24.20;92.60;;;22.22;59.88;100824.38;5070414;28;20068;-56
2021/06/12 05:55:31;;;;;;;2.15;0.50;;;24.10;93.20;;;22.76;58.14;100821.16;5070290;28;20384;-56
2021/06/12 05:57:57;;;;;;;1.05;0.40;;;24.70;91.80;;;23.87;55.00;100821.19;5070822;28;20032;-59
2021/06/12 06:00:23;;;;;;;2.42;0.50;;;25.90;90.10;;;24.21;54.25;100827.69;5070646;28;20364;-51
2021/06/12 06:02:49;;;;;;;2.28;0.40;;;26.60;85.70;;;24.87;52.85;100823.28;5070613;28;20082;-56
2021/06/12 06:05:16;;;;;;;1.13;0.60;;;27.50;82.10;;;25.76;50.89;100816.78;5070650;28;20423;-54
2021/06/12 06:07:42;;;;;;;1.23;0.50;;;28.90;76.10;;;25.17;51.50;100816.00;5070122;28;20033;-57
2021/06/12 06:10:08;;;;;;;2.45;0.50;;;28.30;73.70;;;25.95;50.20;100825.44;5069437;28;20028;-57
2021/06/12 06:12:35;;;;;;;2.05;0.47;;;28.70;71.90;;;26.45;48.89;100825.59;5069439;28;20040;-58
2021/06/12 06:15:03;;;;;;;2.45;0.55;;;29.50;69.50;;;27.39;46.33;100815.06;5069929;28;20039;-50
2021/06/12 06:17:28;;;;;;;0.60;0.30;;;31.00;64.70;;;26.66;46.43;100824.88;5069475;28;20147;-59
2021/06/12 06:19:54;;;;;;;1.20;0.50;;;30.80;60.60;;;26.86;47.16;100831.63;5069975;28;20033;-56
2021/06/12 06:22:20;;;;;;;2.25;0.40;;;30.10;64.00;;;27.22;46.51;100830.31;5069847;28;20033;-57
2021/06/12 06:24:46;;;;;;;2.97;0.40;;;30.50;61.90;;;27.60;45.44;100821.50;5069869;28;20092;-53
2021/06/12 06:27:12;;;;;;;1.85;0.40;;;30.70;60.40;;;28.06;44.22;100820.97;5070063;28;20032;-56
2021/06/12 06:29:38;;;;;;;6.00;0.47;;;31.40;58.60;;;28.31;42.86;100827.69;5070375;28;20089;-52
2021/06/12 06:32:05;;;;;;;0.70;0.30;;;31.70;57.00;;;28.67;42.50;100820.78;5051874;28;20344;-57
2021/06/12 06:34:31;;;;;;;2.55;0.40;;;32.10;57.40;;;29.26;41.83;100818.81;5070973;28;20048;-54
2021/06/12 06:36:57;;;;;;;1.77;0.30;;;33.50;54.90;;;29.02;42.31;100833.66;5070045;28;20161;-57
2021/06/12 06:39:23;;;;;;;2.08;0.40;;;33.00;54.70;;;29.42;41.21;100826.97;5069342;28;20127;-54
2021/06/12 06:41:49;;;;;;;2.35;0.50;;;33.20;54.10;;;28.32;43.38;100834.69;5050739;28;20028;-55
2021/06/12 06:44:15;;;;;;;1.00;0.35;;;32.50;54.00;;;28.16;43.73;100830.19;5049421;28;20037;-55
2021/06/12 06:46:41;;;;;;;0.82;0.40;;;31.90;55.40;;;27.63;44.48;100829.03;5049316;28;20068;-60
2021/06/12 06:49:07;;;;;;;2.08;0.40;;;31.60;55.70;;;28.41;42.77;100833.13;5031087;28;20033;-58
2021/06/12 06:51:33;;;;;;;0.65;0.30;;;32.10;54.90;;;28.84;42.01;100828.69;5049251;28;20092;-59
2021/06/12 06:53:59;;;;;;;0.68;0.30;;;32.40;54.00;;;28.79;41.98;100824.09;5049594;28;20052;-58
2021/06/12 06:56:25;;;;;;;1.30;0.30;;;32.50;54.30;;;28.64;42.24;100827.47;5048345;28;20518;-58
2021/06/12 06:58:51;;;;;;;1.13;0.40;;;32.20;54.30;;;28.80;41.82;100825.72;5031230;28;20492;-51
2021/06/12 07:01:16;;;;;;;2.15;0.40;;;32.30;53.90;;;28.50;42.21;100820.09;5049370;28;20029;-56
2021/06/12 07:03:42;;;;;;;3.13;0.50;;;32.10;53.80;;;29.17;40.62;100814.19;5049268;28;20032;-60
2021/06/12 07:06:08;;;;;;;3.72;0.50;;;32.90;52.90;;;29.65;39.61;100824.66;5049080;28;20033;-56
2021/06/12 07:08:34;;;;;;;0.60;0.30;;;33.30;52.10;;;28.44;41.89;100831.81;5048884;28;20503;-56
2021/06/12 07:11:01;;;;;;;2.47;0.32;;;31.50;54.80;;;27.00;44.78;100831.06;5049061;28;20119;-52
2021/06/12 07:13:27;;;;;;;2.72;0.43;;;29.10;59.10;;;26.22;46.22;100831.81;5030711;28;20037;-56
2021/06/12 07:15:53;;;;;;;1.55;0.47;;;27.60;62.60;;;26.02;46.71;100831.44;5014436;28;20029;-59
2021/06/12 07:18:19;;;;;;;0.93;0.38;;;27.20;64.00;;;25.85;47.46;100826.03;5049016;28;20036;-60
2021/06/12 07:20:47;;;;;;;0.80;0.43;;;26.70;65.50;;;26.06;47.62;100844.06;5048815;28;20476;-58
2021/06/12 07:23:17;;;;;;;2.28;0.52;;;26.70;66.80;;;25.45;48.05;100832.13;5048559;28;20036;-54
2021/06/12 07:25:45;;;;;;;1.33;0.40;;;26.40;66.40;;;25.41;49.44;100836.31;5049043;28;20033;-63
2021/06/12 07:28:13;;;;;;;3.72;0.45;;;26.20;68.30;;;25.33;49.24;100838.50;5048577;28;20037;-54
2021/06/12 07:30:40;;;;;;;2.35;0.40;;;26.10;68.60;;;24.77;50.56;100835.31;5048662;28;20025;-59
2021/06/12 07:33:08;;;;;;;0.80;0.50;;;25.80;69.50;;;24.89;50.28;100827.34;5030686;28;20035;-54
2021/06/12 07:35:35;;;;;;;1.45;0.45;;;25.70;69.90;;;25.27;48.74;100829.56;5048128;28;20036;-56
2021/06/12 07:38:01;;;;;;;1.83;0.47;;;25.80;69.50;;;25.29;48.71;100827.50;5048827;28;20043;-55
2021/06/12 07:40:28;;;;;;;2.13;0.60;;;25.90;69.00;;;25.66;47.98;100833.38;5048581;28;20021;-52
2021/06/12 07:42:54;;;;;;;1.80;0.30;;;26.00;69.40;;;25.99;46.83;100829.25;5048173;28;20207;-53
2021/06/12 07:45:20;;;;;;;2.42;0.43;;;26.20;69.10;;;25.34;48.00;100826.78;5030027;28;20036;-54
2021/06/12 07:47:46;;;;;;;0.98;0.50;;;26.00;68.80;;;25.70;47.58;100836.41;5047930;28;20033;-55
2021/06/12 07:50:13;;;;;;;3.60;0.93;;;26.20;68.50;;;25.43;47.74;100831.56;5048455;28;20053;-55
2021/06/12 07:52:39;;;;;;;1.15;0.47;;;26.20;67.80;;;25.45;47.23;100832.13;5048039;28;20181;-54
2021/06/12 07:55:06;;;;;;;4.32;0.60;;;26.10;67.80;;;25.66;46.88;100827.25;5048160;28;20119;-53
2021/06/12 07:57:32;;;;;;;1.13;0.50;;;26.20;68.00;;;26.12;45.51;100827.09;5030157;28;20158;-55
2021/06/12 07:59:58;;;;;;;0.80;0.40;;;26.30;67.40;;;26.50;44.58;100823.00;5048089;28;20493;-54
2021/06/12 08:02:25;;;;;;;0.60;0.40;;;26.70;67.10;;;26.81;43.64;100828.88;5047885;28;20033;-49
2021/06/12 08:04:51;;;;;;;1.15;0.55;;;27.10;65.40;;;26.90;44.06;100830.91;5029914;28;20476;-50
2021/06/12 08:07:17;;;;;;;0.90;0.50;;;27.20;65.60;;;26.88;43.84;100818.81;5047721;28;20091;-50
2021/06/12 08:09:43;;;;;;;1.63;0.50;;;27.30;65.10;;;27.24;42.23;100812.97;5047821;28;20033;-45
2021/06/12 08:12:10;;;;;;;2.00;0.50;;;27.50;63.60;;;27.30;41.72;100811.19;5048115;28;20053;-50
2021/06/12 08:14:36;;;;;;;1.65;0.47;;;27.50;63.10;;;27.03;42.38;100813.72;5047968;28;20108;-51
2021/06/12 08:17:02;;;;;;;1.30;0.30;;;27.50;63.30;;;27.48;42.19;100818.09;5047783;28;20084;-53
2021/06/12 08:19:28;;;;;;;3.22;0.40;;;27.70;63.70;;;27.31;42.87;100812.81;5048026;28;20112;-52
2021/06/12 08:21:54;;;;;;;2.70;0.40;;;27.70;63.60;;;27.53;41.89;100818.16;5047769;28;20037;-47
2021/06/12 08:24:20;;;;;;;0.70;0.40;;;27.80;63.20;;;27.35;42.71;100820.09;5047595;28;20025;-52
2021/06/12 08:26:46;;;;;;;1.25;0.50;;;27.80;63.50;;;27.84;40.93;100811.38;5047712;28;20116;-55
2021/06/12 08:29:12;;;;;;;1.67;0.40;;;28.20;61.60;;;28.28;39.87;100817.50;5047962;28;20036;-55
2021/06/12 08:31:38;;;;;;;1.20;0.40;;;28.60;61.20;;;28.70;39.03;100817.59;5047830;28;20120;-55
2021/06/12 08:34:04;;;;;;;1.33;0.35;;;29.10;59.70;;;28.36;39.54;100814.31;5047649;28;20029;-52
2021/06/12 08:36:31;;;;;;;0.80;0.38;;;29.10;59.30;;;28.00;39.99;100821.16;5048235;28;20128;-53
2021/06/12 08:38:57;;;;;;;6.65;0.50;;;28.70;59.30;;;28.08;39.45;100821.53;5029555;28;20041;-54
2021/06/12 08:41:23;;;;;;;1.30;0.30;;;28.70;58.90;;;28.62;38.75;100824.22;5047630;28;20052;-52
2021/06/12 08:43:50;;;;;;;5.85;0.55;;;28.90;59.40;;;29.33;37.95;100816.69;5047431;28;20167;-54
2021/06/12 08:46:16;;;;;;;4.55;0.52;;;29.50;59.20;;;29.81;37.06;100819.34;5047444;28;20029;-55
2021/06/12 08:48:42;;;;;;;1.60;0.40;;;30.00;58.20;;;29.69;37.04;100815.03;5028403;28;20044;-52
2021/06/12 08:51:08;;;;;;;1.08;0.45;;;30.10;57.40;;;29.97;37.04;100824.50;5047936;28;20033;-54
2021/06/12 08:53:36;;;;;;;2.55;0.50;;;30.30;57.50;;;29.97;37.19;100821.81;5046119;28;20048;-56
2021/06/12 08:56:03;;;;;;;0.80;0.40;;;30.40;57.40;;;30.10;36.75;100825.91;5045080;28;20049;-54
2021/06/12 08:58:29;;;;;;;1.00;0.50;;;30.50;57.50;;;29.74;37.14;100826.84;5047039;28;20187;-54
2021/06/12 09:00:55;;;;;;;0.63;0.50;;;30.40;56.70;;;29.62;36.58;100832.44;5048155;28;20021;-54
2021/06/12 09:03:29;;;;;;;2.60;0.45;;;30.20;56.20;;;29.33;36.43;100830.09;5047895;28;20029;-55
2021/06/12 09:05:57;;;;;;;1.00;0.50;;;30.00;55.60;;;29.50;36.55;100826.47;5047621;28;20089;-49
2021/06/12 09:08:36;;;;;;;1.63;0.50;;;29.90;56.20;;;29.33;35.17;100819.38;5047478;28;20029;-51
2021/06/12 09:11:15;;;;;;;7.28;0.73;;;29.70;55.60;;;29.50;34.37;100818.41;5046386;28;20033;-55
2021/06/12 09:13:57;;;;;;;2.45;0.75;;;29.70;55.70;;;29.79;34.76;100814.22;5028620;28;20033;-51
2021/06/12 09:16:32;;;;;;;1.25;0.32;;;30.00;55.70;;;29.48;35.31;100820.56;5028431;28;20415;-51
2021/06/12 09:19:09;;;;;;;1.63;0.57;;;29.90;55.00;;;29.69;34.21;100817.72;5046392;28;20044;-55
2021/06/12 09:21:47;;;;;;;1.15;0.40;;;29.90;54.40;;;29.79;34.77;100819.59;5049825;28;20048;-56
2021/06/12 09:24:31;;;;;;;0.60;0.45;;;30.00;54.40;;;30.12;33.88;100817.59;5050396;28;20180;-51
2021/06/12 09:27:13;;;;;;;0.60;0.40;;;30.30;53.60;;;29.86;33.98;100814.78;5048067;28;20510;-50
2021/06/12 09:29:41;;;;;;;4.55;0.55;;;30.30;53.90;;;29.32;35.77;100816.94;5049947;28;20044;-54
2021/06/12 09:32:30;;;;;;;1.88;0.50;;;29.90;54.50;;;29.16;35.56;100816.06;5050004;28;20040;-55
2021/06/12 09:35:09;;;;;;;2.00;0.38;;;29.60;54.20;;;29.06;36.01;100810.63;5050085;28;20053;-52
2021/06/12 09:37:37;;;;;;;0.98;0.50;;;29.50;55.10;;;29.29;36.25;100806.75;5049783;28;20032;-53
2021/06/12 09:40:16;;;;;;;0.80;0.32;;;29.50;55.70;;;29.36;35.80;100805.44;5049736;28;20392;-55
2021/06/12 09:42:48;;;;;;;0.70;0.40;;;29.70;55.20;;;29.33;35.46;100807.81;5039361;28;20137;-53
2021/06/12 09:45:15;;;;;;;0.50;0.40;;;29.70;55.10;;;29.56;35.31;100814.69;5070037;28;20035;-53
2021/06/12 09:47:41;;;;;;;1.20;0.40;;;29.80;55.00;;;29.70;34.86;100818.53;5069471;28;20063;-55
2021/06/12 09:50:10;;;;;;;0.70;0.40;;;30.00;54.00;;;29.56;35.27;100809.31;5069509;28;20111;-54
2021/06/12 09:52:50;;;;;;;1.75;0.40;;;29.90;54.50;;;30.55;34.07;100814.41;5069982;28;20046;-50
2021/06/12 09:55:28;;;;;;;1.00;0.40;;;30.50;54.40;;;31.02;32.83;100811.44;5069474;28;20190;-53
2021/06/12 09:58:00;;;;;;;0.75;0.30;;;31.00;53.00;;;30.51;33.91;100813.34;5070115;28;20106;-54
2021/06/12 10:00:32;;;;;;;1.92;0.45;;;30.90;52.70;;;30.91;33.65;100817.09;5069298;28;20538;-54
2021/06/12 10:02:58;;;;;;;0.50;0.30;;;31.00;53.70;;;30.84;33.09;100816.56;5069137;28;20040;-55
2021/06/12 10:05:26;;;;;;;2.80;0.35;;;31.20;52.50;;;30.83;32.68;100820.34;5069117;28;20043;-56
2021/06/12 10:07:53;;;;;;;3.95;0.40;;;31.10;52.20;;;31.02;31.96;100814.13;5050750;28;20123;-57
2021/06/12 10:10:20;;;;;;;0.77;0.30;;;31.20;51.60;;;30.87;32.17;100818.72;5068915;28;20113;-58
2021/06/12 10:12:46;;;;;;;0.80;0.40;;;31.10;51.40;;;30.94;32.43;100813.88;5069541;28;20032;-53
2021/06/12 10:15:15;;;;;;;0.93;0.47;;;31.20;50.60;;;30.72;32.28;100808.78;5034642;28;20047;-55
2021/06/12 10:17:50;;;;;;;2.38;0.40;;;31.10;50.80;;;30.52;32.64;100811.44;5051137;28;20029;-49